createdAt,value
2023-05-10T00:01:22.370Z,11.70
2023-05-10T00:03:49.353Z,11.70
2023-05-10T00:06:16.378Z,11.70
2023-05-10T00:08:43.147Z,11.60
2023-05-10T00:11:09.994Z,11.50
2023-05-10T00:13:36.810Z,11.50
2023-05-10T00:16:03.840Z,11.50
2023-05-10T00:18:30.709Z,11.50
2023-05-10T00:20:57.489Z,11.50
2023-05-10T00:23:24.260Z,11.50
2023-05-10T00:25:51.161Z,11.60
2023-05-10T00:28:17.943Z,11.60
2023-05-10T00:30:44.734Z,11.60
2023-05-10T00:33:12.431Z,11.60
2023-05-10T00:35:39.406Z,11.60
2023-05-10T00:38:06.171Z,11.50
2023-05-10T00:40:32.931Z,11.50
2023-05-10T00:43:01.432Z,11.50
2023-05-10T00:45:28.366Z,11.50
2023-05-10T00:47:56.909Z,11.30
2023-05-10T00:50:24.782Z,11.30
2023-05-10T00:52:51.736Z,11.30
2023-05-10T00:55:20.307Z,11.30
2023-05-10T00:57:47.175Z,11.30
2023-05-10T01:00:18.970Z,11.30
2023-05-10T01:02:47.429Z,11.30
2023-05-10T01:05:15.004Z,11.40
2023-05-10T01:07:42.152Z,11.40
2023-05-10T01:10:10.516Z,11.30
2023-05-10T01:12:40.664Z,11.30
2023-05-10T01:15:10.238Z,11.30
2023-05-10T01:17:38.992Z,11.20
2023-05-10T01:20:08.943Z,11.10
2023-05-10T01:23:12.614Z,11.00
2023-05-10T01:26:22.139Z,10.90
2023-05-10T01:28:51.476Z,10.90
2023-05-10T01:32:01.037Z,10.90
2023-05-10T01:34:43.471Z,11.00
2023-05-10T01:37:30.018Z,11.10
2023-05-10T01:40:07.410Z,11.00
2023-05-10T01:42:48.813Z,11.10
2023-05-10T01:45:31.882Z,11.10
2023-05-10T01:48:12.758Z,11.20
2023-05-10T01:50:44.449Z,11.30
2023-05-10T01:53:14.035Z,11.30
2023-05-10T01:55:53.500Z,11.30
2023-05-10T01:58:31.524Z,11.30
2023-05-10T02:01:01.722Z,11.40
2023-05-10T02:03:30.741Z,11.30
2023-05-10T02:05:58.754Z,11.30
2023-05-10T02:08:27.292Z,11.30
2023-05-10T02:10:57.546Z,11.30
2023-05-10T02:13:27.285Z,11.30
2023-05-10T02:15:55.693Z,11.40
2023-05-10T02:18:24.989Z,11.30
2023-05-10T02:20:53.427Z,11.30
2023-05-10T02:23:21.391Z,11.30
2023-05-10T02:25:50.595Z,11.30
2023-05-10T02:28:19.206Z,11.30
2023-05-10T02:30:48.031Z,11.30
2023-05-10T02:33:16.137Z,11.30
2023-05-10T02:35:43.169Z,11.20
2023-05-10T02:38:11.117Z,11.20
2023-05-10T02:40:38.894Z,11.20
2023-05-10T02:43:10.443Z,11.20
2023-05-10T02:45:39.850Z,11.30
2023-05-10T02:48:07.213Z,11.30
2023-05-10T02:50:34.945Z,11.30
2023-05-10T02:53:06.853Z,11.30
2023-05-10T02:55:41.659Z,11.30
2023-05-10T02:58:08.689Z,11.40
2023-05-10T03:00:37.248Z,11.30
2023-05-10T03:03:04.205Z,11.30
2023-05-10T03:05:31.268Z,11.30
2023-05-10T03:07:58.220Z,11.40
2023-05-10T03:10:30.224Z,11.40
2023-05-10T03:13:30.627Z,11.40
2023-05-10T03:16:19.375Z,11.40
2023-05-10T03:18:56.282Z,11.40
2023-05-10T03:21:27.248Z,11.40
2023-05-10T03:24:06.255Z,11.40
2023-05-10T03:26:33.761Z,11.40
2023-05-10T03:29:01.592Z,11.40
2023-05-10T03:31:28.641Z,11.40
2023-05-10T03:33:55.517Z,11.50
2023-05-10T03:36:22.315Z,11.40
2023-05-10T03:38:49.125Z,11.40
2023-05-10T03:41:15.985Z,11.50
2023-05-10T03:43:43.002Z,11.50
2023-05-10T03:46:09.776Z,11.40
2023-05-10T03:48:36.606Z,11.40
2023-05-10T03:51:03.557Z,11.40
2023-05-10T03:53:30.308Z,11.30
2023-05-10T03:55:57.216Z,11.30
2023-05-10T03:58:24.087Z,11.30
2023-05-10T04:00:52.223Z,11.30
2023-05-10T04:03:19.211Z,11.20
2023-05-10T04:05:46.110Z,11.20
2023-05-10T04:08:12.945Z,11.20
2023-05-10T04:10:40.869Z,11.20
2023-05-10T04:13:07.790Z,11.20
2023-05-10T04:15:34.711Z,11.20
2023-05-10T04:18:01.765Z,11.20
2023-05-10T04:20:28.730Z,11.10
2023-05-10T04:22:55.507Z,11.20
2023-05-10T04:25:22.715Z,11.10
2023-05-10T04:27:49.519Z,11.10
2023-05-10T04:30:16.560Z,11.20
2023-05-10T04:32:43.609Z,11.10
2023-05-10T04:35:11.610Z,11.20
2023-05-10T04:37:38.521Z,11.20
2023-05-10T04:40:07.099Z,11.20
2023-05-10T04:42:34.045Z,11.20
2023-05-10T04:45:00.874Z,11.20
2023-05-10T04:47:27.697Z,11.30
2023-05-10T04:49:54.526Z,11.30
2023-05-10T04:52:21.322Z,11.30
2023-05-10T04:54:48.193Z,11.40
2023-05-10T04:57:15.047Z,11.50
2023-05-10T04:59:41.837Z,11.60
2023-05-10T05:02:08.896Z,11.60
2023-05-10T05:04:35.912Z,11.60
2023-05-10T05:07:02.706Z,11.60
2023-05-10T05:09:29.455Z,11.60
2023-05-10T05:11:56.622Z,11.60
2023-05-10T05:14:23.488Z,11.60
2023-05-10T05:16:50.270Z,11.70
2023-05-10T05:19:17.056Z,11.60
2023-05-10T05:21:44.177Z,11.60
2023-05-10T05:24:13.494Z,11.70
2023-05-10T05:26:40.263Z,11.80
2023-05-10T05:29:07.922Z,11.70
2023-05-10T05:31:34.856Z,11.80
2023-05-10T05:34:01.716Z,11.80
2023-05-10T05:36:28.509Z,11.80
2023-05-10T05:38:55.876Z,11.70
2023-05-10T05:41:22.721Z,11.70
2023-05-10T05:43:49.494Z,11.80
2023-05-10T05:46:16.401Z,11.80
2023-05-10T05:48:43.202Z,11.80
2023-05-10T05:51:10.060Z,11.60
2023-05-10T05:53:36.989Z,11.60
2023-05-10T05:56:04.609Z,11.60
2023-05-10T05:58:31.465Z,11.70
2023-05-10T06:00:58.387Z,11.70
2023-05-10T06:03:25.375Z,11.80
2023-05-10T06:05:52.193Z,11.70
2023-05-10T06:08:19.078Z,11.70
2023-05-10T06:10:46.338Z,11.70
2023-05-10T06:13:13.315Z,11.80
2023-05-10T06:15:40.205Z,11.80
2023-05-10T06:18:07.204Z,11.80
2023-05-10T06:20:34.117Z,11.80
2023-05-10T06:23:00.931Z,11.70
2023-05-10T06:25:27.759Z,11.80
2023-05-10T06:27:58.257Z,11.80
2023-05-10T06:30:29.223Z,11.80
2023-05-10T06:32:56.498Z,11.80
2023-05-10T06:35:23.498Z,11.90
2023-05-10T06:37:51.171Z,11.90
2023-05-10T06:40:18.572Z,12.00
2023-05-10T06:42:46.090Z,12.10
2023-05-10T06:45:13.682Z,12.10
2023-05-10T06:47:40.523Z,12.10
2023-05-10T06:50:09.232Z,12.10
2023-05-10T06:52:36.487Z,12.10
2023-05-10T06:55:06.009Z,12.10
2023-05-10T06:57:32.977Z,12.20
2023-05-10T07:00:00.368Z,12.20
2023-05-10T07:02:28.341Z,12.20
2023-05-10T07:04:55.357Z,12.20
2023-05-10T07:07:22.324Z,12.20
2023-05-10T07:09:50.809Z,12.30
2023-05-10T07:12:17.748Z,12.30
2023-05-10T07:14:44.610Z,12.30
2023-05-10T07:17:11.587Z,12.30
2023-05-10T07:19:38.407Z,12.30
2023-05-10T07:22:05.221Z,12.30
2023-05-10T07:24:33.987Z,12.30
2023-05-10T07:27:01.058Z,12.40
2023-05-10T07:29:27.914Z,12.30
2023-05-10T07:31:57.909Z,12.40
2023-05-10T07:34:25.968Z,12.40
2023-05-10T07:36:53.571Z,12.40
2023-05-10T07:39:27.298Z,12.40
2023-05-10T07:41:56.230Z,12.50
2023-05-10T07:44:23.585Z,12.50
2023-05-10T07:46:50.913Z,12.60
2023-05-10T07:49:17.882Z,12.70
2023-05-10T07:51:44.800Z,12.70
2023-05-10T07:54:11.722Z,12.80
2023-05-10T07:56:38.532Z,12.90
2023-05-10T07:59:07.360Z,12.90
2023-05-10T08:01:35.779Z,12.80
2023-05-10T08:04:03.078Z,12.80
2023-05-10T08:06:30.979Z,12.80
2023-05-10T08:08:58.381Z,12.80
2023-05-10T08:11:25.670Z,12.90
2023-05-10T08:13:53.697Z,12.90
2023-05-10T08:16:21.236Z,13.00
2023-05-10T08:18:48.446Z,13.00
2023-05-10T08:21:16.511Z,13.00
2023-05-10T08:23:45.206Z,12.90
2023-05-10T08:26:12.517Z,13.00
2023-05-10T08:28:39.419Z,13.00
2023-05-10T08:31:06.593Z,12.90
2023-05-10T08:33:33.625Z,12.90
2023-05-10T08:36:00.534Z,12.90
2023-05-10T08:38:27.438Z,12.70
2023-05-10T08:40:59.668Z,12.70
2023-05-10T08:43:30.829Z,12.70
2023-05-10T08:46:01.271Z,12.60
2023-05-10T08:48:31.824Z,12.70
2023-05-10T08:51:00.966Z,12.80
2023-05-10T08:53:29.859Z,12.60
2023-05-10T08:55:58.452Z,12.60
2023-05-10T08:58:26.277Z,12.50
2023-05-10T09:00:53.796Z,12.50
2023-05-10T09:03:21.151Z,12.50
2023-05-10T09:05:49.748Z,12.50
2023-05-10T09:08:17.474Z,12.60
2023-05-10T09:10:50.368Z,12.60
2023-05-10T09:13:19.873Z,12.70
2023-05-10T09:15:46.978Z,12.70
2023-05-10T09:18:14.037Z,12.70
2023-05-10T09:20:41.454Z,12.60
2023-05-10T09:23:08.712Z,12.70
2023-05-10T09:25:35.957Z,12.80
2023-05-10T09:28:03.114Z,12.80
2023-05-10T09:30:32.090Z,12.80
2023-05-10T09:33:00.586Z,12.90
2023-05-10T09:35:30.409Z,13.00
2023-05-10T09:38:01.578Z,13.10
2023-05-10T09:40:31.288Z,13.20
2023-05-10T09:43:03.042Z,13.40
2023-05-10T09:45:32.439Z,13.50
2023-05-10T09:48:01.937Z,13.50
2023-05-10T09:50:29.930Z,13.50
2023-05-10T09:53:02.187Z,13.50
2023-05-10T09:55:55.325Z,13.50
2023-05-10T09:58:22.130Z,13.70
2023-05-10T10:00:52.255Z,13.70
2023-05-10T10:03:21.892Z,13.90
2023-05-10T10:05:49.616Z,13.90
2023-05-10T10:08:18.068Z,14.00
2023-05-10T10:10:47.493Z,14.10
2023-05-10T10:13:14.936Z,14.20
2023-05-10T10:15:45.147Z,14.30
2023-05-10T10:18:18.394Z,14.40
2023-05-10T10:20:45.682Z,14.50
2023-05-10T10:23:12.924Z,14.50
2023-05-10T10:25:40.722Z,14.60
2023-05-10T10:29:06.475Z,14.70
2023-05-10T10:31:46.441Z,14.80
2023-05-10T10:34:30.539Z,15.00
2023-05-10T10:36:58.861Z,15.00
2023-05-10T10:39:26.332Z,15.00
2023-05-10T10:41:56.037Z,14.90
2023-05-10T10:44:26.918Z,15.00
2023-05-10T10:47:07.001Z,15.10
2023-05-10T10:50:01.046Z,15.20
2023-05-10T10:52:34.175Z,15.30
2023-05-10T10:55:19.102Z,15.40
2023-05-10T10:58:01.359Z,15.60
2023-05-10T11:00:34.300Z,15.60
2023-05-10T11:03:14.438Z,15.70
2023-05-10T11:05:43.485Z,15.70
2023-05-10T11:08:38.111Z,15.80
2023-05-10T11:11:08.177Z,15.90
2023-05-10T11:13:39.444Z,16.00
2023-05-10T11:16:45.123Z,15.90
2023-05-10T11:19:17.456Z,16.00
2023-05-10T11:22:06.472Z,16.10
2023-05-10T11:24:34.398Z,16.20
2023-05-10T11:27:01.892Z,16.20
2023-05-10T11:29:28.778Z,16.20
2023-05-10T11:31:59.865Z,16.10
2023-05-10T11:34:32.085Z,16.20
2023-05-10T11:36:59.098Z,16.20
2023-05-10T11:39:31.260Z,16.20
2023-05-10T11:41:59.137Z,16.30
2023-05-10T11:44:32.328Z,16.40
2023-05-10T11:47:03.361Z,16.50
2023-05-10T11:49:30.309Z,16.50
2023-05-10T11:52:08.314Z,16.50
2023-05-10T11:54:36.073Z,16.40
2023-05-10T11:57:03.164Z,16.20
2023-05-10T11:59:30.288Z,16.20
2023-05-10T12:01:57.494Z,16.20
2023-05-10T12:04:24.475Z,16.20
2023-05-10T12:06:51.335Z,16.20
2023-05-10T12:09:23.035Z,16.20
2023-05-10T12:11:58.653Z,16.30
2023-05-10T12:14:25.461Z,16.40
2023-05-10T12:16:52.416Z,16.50
2023-05-10T12:19:22.351Z,16.50
2023-05-10T12:21:49.794Z,16.60
2023-05-10T12:24:20.131Z,16.60
2023-05-10T12:26:47.116Z,16.40
2023-05-10T12:29:19.300Z,16.40
2023-05-10T12:31:54.539Z,16.50
2023-05-10T12:34:31.845Z,16.40
2023-05-10T12:36:59.861Z,16.50
2023-05-10T12:39:26.681Z,16.40
2023-05-10T12:41:53.960Z,16.50
2023-05-10T12:44:20.927Z,16.50
2023-05-10T12:46:47.774Z,16.40
2023-05-10T12:49:14.561Z,16.00
2023-05-10T12:51:41.338Z,16.00
2023-05-10T12:54:08.188Z,15.70
2023-05-10T12:56:35.024Z,15.70
2023-05-10T12:59:01.816Z,15.80
2023-05-10T13:01:29.351Z,15.90
2023-05-10T13:03:56.156Z,16.00
2023-05-10T13:06:23.099Z,16.10
2023-05-10T13:08:49.950Z,16.00
2023-05-10T13:11:17.970Z,15.90
2023-05-10T13:13:45.592Z,15.90
2023-05-10T13:16:12.365Z,15.80
2023-05-10T13:18:39.272Z,15.50
2023-05-10T13:21:06.690Z,15.40
2023-05-10T13:23:33.485Z,15.40
2023-05-10T13:26:00.365Z,15.40
2023-05-10T13:28:27.380Z,15.40
2023-05-10T13:30:54.398Z,15.40
2023-05-10T13:33:21.252Z,15.30
2023-05-10T13:35:48.091Z,15.30
2023-05-10T13:38:15.044Z,15.40
2023-05-10T13:40:41.869Z,15.30
2023-05-10T13:43:08.734Z,15.30
2023-05-10T13:45:35.548Z,15.40
2023-05-10T13:48:02.492Z,15.40
2023-05-10T13:50:29.510Z,15.30
2023-05-10T13:52:56.581Z,15.50
2023-05-10T13:55:23.568Z,15.50
2023-05-10T13:57:50.365Z,15.60
2023-05-10T14:00:17.745Z,15.70
2023-05-10T14:02:44.867Z,15.70
2023-05-10T14:05:12.083Z,15.80
2023-05-10T14:07:39.588Z,15.80
2023-05-10T14:10:07.139Z,15.80
2023-05-10T14:12:33.991Z,15.70
2023-05-10T14:15:01.324Z,15.70
2023-05-10T14:17:28.305Z,15.80
2023-05-10T14:19:55.350Z,15.80
2023-05-10T14:22:22.450Z,15.90
2023-05-10T14:24:49.578Z,16.00
2023-05-10T14:27:16.844Z,16.10
2023-05-10T14:29:43.643Z,16.10
2023-05-10T14:32:10.822Z,16.10
2023-05-10T14:34:37.781Z,16.10
2023-05-10T14:37:05.351Z,16.10
2023-05-10T14:39:32.198Z,16.20
2023-05-10T14:41:59.470Z,16.20
2023-05-10T14:44:26.293Z,16.30
2023-05-10T14:46:53.099Z,16.40
2023-05-10T14:49:19.887Z,16.40
2023-05-10T14:51:46.797Z,16.50
2023-05-10T14:54:13.608Z,16.70
2023-05-10T14:56:42.320Z,16.70
2023-05-10T14:59:09.648Z,16.70
2023-05-10T15:01:39.015Z,16.70
2023-05-10T15:04:06.169Z,16.80
2023-05-10T15:06:35.494Z,16.90
2023-05-10T15:09:04.334Z,17.00
2023-05-10T15:11:31.170Z,16.90
2023-05-10T15:13:57.944Z,16.60
2023-05-10T15:16:24.871Z,16.70
2023-05-10T15:18:52.008Z,16.50
2023-05-10T15:21:18.797Z,16.60
2023-05-10T15:23:45.632Z,16.60
2023-05-10T15:26:12.455Z,16.60
2023-05-10T15:28:39.256Z,16.60
2023-05-10T15:31:06.263Z,16.70
2023-05-10T15:33:33.370Z,16.70
2023-05-10T15:36:00.151Z,16.80
2023-05-10T15:38:26.993Z,16.80
2023-05-10T15:40:58.903Z,16.90
2023-05-10T15:43:25.723Z,16.80
2023-05-10T15:45:52.513Z,16.90
2023-05-10T15:48:19.341Z,16.90
2023-05-10T15:50:46.122Z,16.80
2023-05-10T15:53:12.921Z,16.80
2023-05-10T15:55:40.089Z,16.70
2023-05-10T15:58:06.820Z,16.60
2023-05-10T16:00:33.712Z,16.60
2023-05-10T16:03:00.846Z,16.50
2023-05-10T16:05:31.864Z,16.50
2023-05-10T16:07:58.683Z,16.40
2023-05-10T16:10:25.584Z,16.50
2023-05-10T16:12:53.827Z,16.60
2023-05-10T16:15:21.831Z,16.60
2023-05-10T16:17:48.748Z,16.70
2023-05-10T16:20:15.731Z,16.60
2023-05-10T16:22:44.316Z,16.40
2023-05-10T16:25:13.487Z,16.50
2023-05-10T16:27:41.015Z,16.50
2023-05-10T16:30:08.976Z,16.40
2023-05-10T16:32:35.741Z,16.30
2023-05-10T16:35:02.675Z,16.30
2023-05-10T16:37:29.449Z,16.30
2023-05-10T16:39:56.195Z,16.30
2023-05-10T16:42:24.119Z,16.40
2023-05-10T16:44:50.941Z,16.20
2023-05-10T16:47:17.801Z,16.10
2023-05-10T16:49:44.614Z,16.10
2023-05-10T16:52:11.414Z,15.90
2023-05-10T16:54:38.217Z,15.90
2023-05-10T16:57:05.088Z,15.90
2023-05-10T16:59:31.873Z,15.90
2023-05-10T17:01:58.693Z,15.80
2023-05-10T17:04:25.536Z,15.80
2023-05-10T17:06:52.269Z,15.80
2023-05-10T17:09:20.169Z,15.70
2023-05-10T17:11:47.112Z,15.80
2023-05-10T17:14:13.893Z,15.80
2023-05-10T17:16:41.700Z,15.70
2023-05-10T17:19:09.682Z,15.70
2023-05-10T17:21:36.702Z,15.70
2023-05-10T17:24:03.519Z,15.60
2023-05-10T17:26:30.608Z,15.60
2023-05-10T17:28:58.143Z,15.60
2023-05-10T17:31:25.019Z,15.50
2023-05-10T17:33:51.908Z,15.60
2023-05-10T17:36:19.038Z,15.50
2023-05-10T17:38:45.820Z,15.30
2023-05-10T17:41:12.993Z,15.30
2023-05-10T17:43:39.748Z,15.30
2023-05-10T17:46:06.653Z,15.30
2023-05-10T17:48:33.852Z,15.40
2023-05-10T17:51:00.716Z,15.40
2023-05-10T17:53:27.509Z,15.40
2023-05-10T17:55:57.851Z,15.30
2023-05-10T17:58:25.060Z,15.30
2023-05-10T18:00:57.414Z,15.30
2023-05-10T18:03:24.287Z,15.30
2023-05-10T18:05:51.289Z,15.20
2023-05-10T18:08:22.623Z,15.30
2023-05-10T18:10:49.668Z,15.20
2023-05-10T18:13:16.820Z,15.20
2023-05-10T18:15:43.822Z,15.20
2023-05-10T18:18:10.992Z,15.20
2023-05-10T18:20:38.055Z,15.20
2023-05-10T18:23:04.869Z,15.20
2023-05-10T18:25:31.643Z,15.10
2023-05-10T18:27:59.016Z,15.00
2023-05-10T18:30:25.788Z,15.00
2023-05-10T18:32:52.709Z,15.00
2023-05-10T18:35:20.016Z,15.00
2023-05-10T18:37:48.498Z,15.00
2023-05-10T18:40:16.933Z,14.90
2023-05-10T18:42:44.107Z,14.90
2023-05-10T18:45:11.593Z,14.90
2023-05-10T18:47:38.468Z,14.80
2023-05-10T18:50:06.283Z,14.80
2023-05-10T18:52:34.006Z,14.80
2023-05-10T18:55:01.207Z,14.80
2023-05-10T18:57:27.999Z,14.70
2023-05-10T18:59:55.019Z,14.70
2023-05-10T19:02:21.903Z,14.70
2023-05-10T19:04:48.774Z,14.70
2023-05-10T19:07:15.649Z,14.70
2023-05-10T19:09:42.472Z,14.70
2023-05-10T19:12:09.253Z,14.60
2023-05-10T19:14:36.097Z,14.60
2023-05-10T19:17:03.271Z,14.60
2023-05-10T19:19:31.881Z,14.60
2023-05-10T19:21:58.644Z,14.60
2023-05-10T19:24:25.905Z,14.50
2023-05-10T19:26:53.356Z,14.50
2023-05-10T19:29:20.123Z,14.50
2023-05-10T19:31:47.136Z,14.40
2023-05-10T19:34:13.999Z,14.30
2023-05-10T19:36:41.031Z,14.20
2023-05-10T19:39:07.809Z,14.20
2023-05-10T19:41:34.606Z,14.20
2023-05-10T19:44:01.497Z,14.20
2023-05-10T19:46:28.406Z,14.10
2023-05-10T19:48:55.311Z,14.20
2023-05-10T19:51:22.225Z,14.10
2023-05-10T19:53:49.065Z,14.20
2023-05-10T19:56:18.104Z,14.10
2023-05-10T19:58:45.242Z,14.10
2023-05-10T20:01:12.083Z,14.00
2023-05-10T20:03:38.973Z,14.00
2023-05-10T20:06:05.923Z,13.90
2023-05-10T20:08:32.686Z,13.90
2023-05-10T20:11:02.340Z,13.90
2023-05-10T20:13:29.352Z,13.80
2023-05-10T20:15:59.783Z,13.80
2023-05-10T20:18:27.209Z,13.80
2023-05-10T20:20:55.929Z,13.80
2023-05-10T20:23:23.238Z,13.80
2023-05-10T20:25:50.117Z,13.80
2023-05-10T20:28:23.927Z,13.80
2023-05-10T20:30:55.404Z,13.80
2023-05-10T20:33:22.773Z,13.80
2023-05-10T20:35:51.257Z,13.80
2023-05-10T20:38:18.409Z,13.70
2023-05-10T20:40:45.566Z,13.70
2023-05-10T20:43:12.585Z,13.70
2023-05-10T20:45:39.406Z,13.60
2023-05-10T20:48:06.419Z,13.60
2023-05-10T20:50:33.298Z,13.60
2023-05-10T20:53:01.125Z,13.60
2023-05-10T20:55:28.553Z,13.60
2023-05-10T20:57:55.493Z,13.60
2023-05-10T21:00:22.399Z,13.70
2023-05-10T21:02:49.200Z,13.70
2023-05-10T21:05:17.959Z,13.70
2023-05-10T21:07:44.901Z,13.70
2023-05-10T21:10:12.261Z,13.70
2023-05-10T21:12:39.149Z,13.70
2023-05-10T21:15:06.748Z,13.80
2023-05-10T21:17:33.608Z,13.80
2023-05-10T21:20:00.405Z,13.70
2023-05-10T21:22:27.375Z,13.80
2023-05-10T21:24:54.240Z,13.70
2023-05-10T21:27:21.307Z,13.60
2023-05-10T21:29:48.295Z,13.60
2023-05-10T21:32:15.113Z,13.50
2023-05-10T21:34:41.999Z,13.50
2023-05-10T21:37:08.992Z,13.60
2023-05-10T21:39:35.985Z,13.60
2023-05-10T21:42:03.528Z,13.50
2023-05-10T21:44:31.371Z,13.40
2023-05-10T21:46:58.170Z,13.40
2023-05-10T21:49:24.985Z,13.40
2023-05-10T21:51:52.087Z,13.30
2023-05-10T21:54:18.911Z,13.30
2023-05-10T21:56:45.801Z,13.30
2023-05-10T21:59:12.585Z,13.20
2023-05-10T22:01:39.406Z,13.30
2023-05-10T22:04:06.204Z,13.30
2023-05-10T22:06:33.012Z,13.30
2023-05-10T22:08:59.969Z,13.40
2023-05-10T22:11:27.431Z,13.30
2023-05-10T22:13:54.247Z,13.20
2023-05-10T22:16:21.099Z,13.10
2023-05-10T22:18:47.953Z,13.10
2023-05-10T22:21:14.797Z,13.20
2023-05-10T22:23:41.598Z,13.20
2023-05-10T22:26:08.377Z,13.30
2023-05-10T22:28:35.192Z,13.40
2023-05-10T22:31:02.025Z,13.40
2023-05-10T22:33:28.907Z,13.30
2023-05-10T22:35:55.873Z,13.30
2023-05-10T22:38:22.675Z,13.30
2023-05-10T22:40:49.499Z,13.30
2023-05-10T22:43:17.222Z,13.40
2023-05-10T22:45:44.114Z,13.40
2023-05-10T22:48:10.979Z,13.40
2023-05-10T22:50:38.066Z,13.30
2023-05-10T22:53:04.919Z,13.20
2023-05-10T22:55:31.713Z,13.10
2023-05-10T22:57:58.911Z,13.10
2023-05-10T23:00:25.801Z,13.10
2023-05-10T23:02:52.960Z,13.20
2023-05-10T23:05:19.890Z,13.10
2023-05-10T23:07:52.798Z,13.10
2023-05-10T23:10:20.286Z,13.10
2023-05-10T23:12:47.187Z,13.00
2023-05-10T23:15:14.069Z,12.90
2023-05-10T23:17:40.977Z,12.90
2023-05-10T23:20:08.658Z,12.80
2023-05-10T23:22:35.744Z,12.80
2023-05-10T23:25:02.960Z,12.90
2023-05-10T23:27:30.494Z,12.90
2023-05-10T23:29:58.012Z,13.00
2023-05-10T23:32:24.887Z,13.10
2023-05-10T23:34:52.067Z,13.30
2023-05-10T23:37:18.859Z,13.30
2023-05-10T23:39:45.633Z,13.20
2023-05-10T23:42:12.565Z,13.10
2023-05-10T23:44:39.383Z,13.10
2023-05-10T23:47:06.962Z,13.00
2023-05-10T23:49:33.850Z,13.10
2023-05-10T23:52:00.748Z,13.00
2023-05-10T23:54:28.105Z,12.90
2023-05-10T23:56:54.870Z,12.80
2023-05-10T23:59:21.651Z,12.70
